Time;durP1;ratioP1;P1;durP2;ratioP2;P2;SDS_P1;SDS_P2;PMS_P1;PMS_P2;Temp;Humidity;BMP_temperature;BMP_pressure;BME280_temperature;BME280_humidity;BME280_pressure;Samples;Min_cycle;Max_cycle;Signal;HPM_P1;HPM_P2
2022/12/22 03:26:32;;;;;;;90.47;32.92;;;8.30;99.90;;;;;;5006679;28;20125;-59
2022/12/22 03:28:58;;;;;;;96.05;32.65;;;8.30;99.90;;;;;;5007213;28;20434;-59
2022/12/22 03:31:23;;;;;;;97.40;32.25;;;8.30;99.90;;;;;;5004681;28;20057;-59
2022/12/22 03:33:49;;;;;;;97.00;32.10;;;8.20;99.90;;;;;;5005989;28;20049;-59
2022/12/22 03:36:14;;;;;;;113.15;33.03;;;8.30;99.90;;;;;;5005582;28;20038;-59
2022/12/22 03:38:40;;;;;;;119.32;32.13;;;8.20;99.90;;;;;;5006849;28;20121;-60
2022/12/22 03:41:05;;;;;;;111.55;33.53;;;8.20;99.90;;;;;;5006613;28;20042;-59
2022/12/22 03:46:29;;;;;;;104.47;31.88;;;8.20;99.90;;;;;;5006731;28;20058;-60
2022/12/22 03:49:10;;;;;;;100.25;30.38;;;8.20;99.90;;;;;;5005748;28;20119;-59
2022/12/22 03:51:44;;;;;;;87.65;30.25;;;8.20;99.90;;;;;;5004432;28;20050;-60
2022/12/22 03:54:14;;;;;;;86.97;29.92;;;8.20;99.90;;;;;;5006474;28;20042;-59
2022/12/22 03:56:41;;;;;;;93.63;31.33;;;8.20;99.90;;;;;;5006505;28;20038;-59
2022/12/22 03:59:07;;;;;;;87.63;31.42;;;8.20;99.90;;;;;;5005883;28;20053;-60
2022/12/22 04:01:36;;;;;;;91.47;30.77;;;8.20;99.90;;;;;;5004750;28;20050;-59
2022/12/22 04:04:01;;;;;;;83.78;30.40;;;8.20;99.90;;;;;;5005100;28;20042;-59
2022/12/22 04:06:27;;;;;;;95.85;31.92;;;8.20;99.90;;;;;;5003956;28;20041;-59
2022/12/22 04:08:52;;;;;;;107.95;32.80;;;8.20;99.90;;;;;;5004921;28;20093;-59
2022/12/22 04:14:03;;;;;;;107.10;31.20;;;8.20;99.90;;;;;;5006070;28;20483;-59
2022/12/22 04:16:29;;;;;;;100.47;31.98;;;8.20;99.90;;;;;;5004946;28;20509;-59
2022/12/22 04:18:54;;;;;;;89.97;33.00;;;8.20;99.90;;;;;;5004922;28;20040;-60
2022/12/22 04:21:20;;;;;;;106.40;33.00;;;8.20;99.90;;;;;;5004141;28;20487;-59
2022/12/22 04:23:45;;;;;;;116.00;34.15;;;8.20;99.90;;;;;;5005399;28;20042;-60
2022/12/22 04:26:11;;;;;;;108.22;33.75;;;8.20;99.90;;;;;;5005391;28;20074;-59
2022/12/22 04:28:36;;;;;;;115.80;35.85;;;8.20;99.90;;;;;;5005897;28;20042;-58
2022/12/22 04:31:02;;;;;;;114.60;34.67;;;8.20;99.90;;;;;;5005562;28;20033;-59
2022/12/22 04:33:28;;;;;;;123.90;35.45;;;8.20;99.90;;;;;;5005168;28;20054;-58
2022/12/22 04:35:53;;;;;;;112.53;34.00;;;8.20;99.90;;;;;;5017862;28;20045;-60
2022/12/22 04:38:19;;;;;;;132.38;36.85;;;8.20;99.90;;;;;;5005032;28;20042;-59
2022/12/22 04:40:44;;;;;;;156.65;38.08;;;8.20;99.90;;;;;;5005822;28;20034;-59
2022/12/22 04:43:10;;;;;;;136.75;37.78;;;8.20;99.90;;;;;;5005641;28;20030;-59
2022/12/22 04:45:35;;;;;;;129.80;36.63;;;8.20;99.90;;;;;;5004449;28;20049;-59
2022/12/22 04:48:01;;;;;;;122.35;34.65;;;8.20;99.90;;;;;;5005046;28;20236;-58
2022/12/22 04:50:26;;;;;;;116.40;35.28;;;8.10;99.90;;;;;;5003842;28;20057;-59
2022/12/22 04:52:52;;;;;;;121.00;35.80;;;8.10;99.90;;;;;;5004113;28;20516;-59
2022/12/22 04:55:18;;;;;;;124.30;37.15;;;8.10;99.90;;;;;;5004175;28;20042;-60
2022/12/22 04:57:44;;;;;;;160.55;39.13;;;8.00;99.90;;;;;;5019710;28;20048;-58
2022/12/22 05:00:10;;;;;;;125.60;36.08;;;8.10;99.90;;;;;;5005112;28;20116;-59
2022/12/22 05:02:35;;;;;;;125.22;36.53;;;8.00;99.90;;;;;;5003399;28;20481;-59
2022/12/22 05:05:01;;;;;;;147.18;37.95;;;8.00;99.90;;;;;;5003049;28;20444;-59
2022/12/22 05:07:26;;;;;;;144.52;37.28;;;8.10;99.90;;;;;;5004057;28;20096;-59
2022/12/22 05:09:52;;;;;;;155.20;39.67;;;8.10;99.90;;;;;;5005494;28;20037;-58
2022/12/22 05:15:02;;;;;;;132.25;39.00;;;8.10;99.90;;;;;;4984790;28;20449;-59
2022/12/22 05:17:28;;;;;;;157.63;39.35;;;8.10;99.90;;;;;;4992679;28;20065;-59
2022/12/22 05:19:53;;;;;;;150.30;38.22;;;8.10;99.90;;;;;;5002094;28;20538;-58
2022/12/22 05:22:19;;;;;;;168.05;41.65;;;8.10;99.90;;;;;;5003842;28;20041;-59
2022/12/22 05:24:44;;;;;;;173.20;41.30;;;8.10;99.90;;;;;;5003054;28;20045;-59
2022/12/22 05:27:11;;;;;;;168.02;41.20;;;8.10;99.90;;;;;;5004926;28;20077;-59
2022/12/22 05:29:37;;;;;;;154.52;39.95;;;8.10;99.90;;;;;;5002623;28;20045;-60
2022/12/22 05:32:02;;;;;;;161.45;40.35;;;8.10;99.90;;;;;;5004479;28;20044;-59
2022/12/22 05:34:28;;;;;;;171.80;41.45;;;8.10;99.90;;;;;;5001696;28;20149;-59
2022/12/22 05:36:53;;;;;;;178.63;41.80;;;8.10;99.90;;;;;;5002693;28;20115;-58
2022/12/22 05:39:19;;;;;;;163.23;40.40;;;8.10;99.90;;;;;;5004066;28;20038;-60
2022/12/22 05:41:45;;;;;;;180.73;42.08;;;8.10;99.90;;;;;;5004976;28;20096;-60
2022/12/22 05:44:10;;;;;;;188.52;41.83;;;8.10;99.90;;;;;;5004438;28;20045;-59
2022/12/22 05:46:36;;;;;;;170.88;41.28;;;8.10;99.90;;;;;;5002147;28;20073;-58
2022/12/22 05:49:02;;;;;;;144.75;39.67;;;8.10;99.90;;;;;;5003609;28;20083;-60
2022/12/22 05:51:27;;;;;;;165.35;41.10;;;8.10;99.90;;;;;;5003129;28;20441;-60
2022/12/22 05:53:53;;;;;;;159.38;40.92;;;8.10;99.90;;;;;;5001859;28;20034;-59
2022/12/22 05:56:18;;;;;;;179.73;41.85;;;8.10;99.90;;;;;;5004117;28;20046;-59
2022/12/22 05:58:44;;;;;;;177.93;39.72;;;8.00;99.90;;;;;;5003654;28;20096;-59
2022/12/22 06:01:09;;;;;;;180.73;39.38;;;8.00;99.90;;;;;;5004281;28;20065;-59
2022/12/22 06:03:35;;;;;;;173.93;39.42;;;8.00;99.90;;;;;;5002255;28;20042;-59
2022/12/22 06:06:00;;;;;;;161.63;40.33;;;8.00;99.90;;;;;;5000974;28;20299;-58
2022/12/22 06:08:27;;;;;;;145.57;39.42;;;8.00;99.90;;;;;;5003873;28;20034;-59
2022/12/22 06:10:54;;;;;;;152.43;38.40;;;8.00;99.90;;;;;;5003898;28;20052;-59
2022/12/22 06:13:20;;;;;;;129.10;36.65;;;8.00;99.90;;;;;;5004129;28;20565;-58
2022/12/22 06:15:47;;;;;;;123.60;35.75;;;7.90;99.90;;;;;;5003509;28;20041;-60
2022/12/22 06:18:12;;;;;;;120.88;35.38;;;7.90;99.90;;;;;;5003363;28;20034;-59
2022/12/22 06:20:38;;;;;;;129.15;38.15;;;7.90;99.90;;;;;;5002094;28;20042;-59
2022/12/22 06:23:04;;;;;;;117.50;35.10;;;7.80;99.90;;;;;;5003108;28;20044;-58
2022/12/22 06:25:29;;;;;;;148.68;36.60;;;7.80;99.90;;;;;;5004054;28;20056;-59
2022/12/22 06:27:55;;;;;;;145.20;36.88;;;7.80;99.90;;;;;;5004006;28;20547;-59
2022/12/22 06:30:20;;;;;;;147.75;36.67;;;7.80;99.90;;;;;;5005090;28;20038;-60
2022/12/22 06:32:46;;;;;;;155.18;37.30;;;7.70;99.90;;;;;;5006928;28;20493;-58
2022/12/22 06:35:11;;;;;;;153.57;37.78;;;7.70;99.90;;;;;;5004884;28;20041;-59
2022/12/22 06:37:37;;;;;;;153.50;35.58;;;7.70;99.90;;;;;;5006710;28;20155;-59
2022/12/22 06:40:03;;;;;;;161.32;36.83;;;7.60;99.90;;;;;;5007466;28;20038;-59
2022/12/22 06:45:13;;;;;;;143.73;36.20;;;7.50;99.90;;;;;;4996098;28;20042;-60
2022/12/22 06:47:39;;;;;;;167.43;34.50;;;7.40;99.90;;;;;;5006868;28;20042;-59
2022/12/22 06:50:05;;;;;;;186.55;37.35;;;7.30;99.90;;;;;;5005615;28;20089;-60
2022/12/22 06:52:31;;;;;;;198.00;37.95;;;7.20;99.90;;;;;;5005931;28;20670;-59
2022/12/22 06:54:56;;;;;;;171.30;38.97;;;7.10;99.90;;;;;;5006185;28;20048;-59
2022/12/22 06:57:22;;;;;;;198.65;40.63;;;7.10;99.90;;;;;;5004524;28;20049;-59
2022/12/22 06:59:47;;;;;;;197.68;41.88;;;7.00;99.90;;;;;;5020769;28;20049;-59
2022/12/22 07:02:13;;;;;;;207.82;39.60;;;6.90;99.90;;;;;;5005851;28;20034;-59
2022/12/22 07:04:38;;;;;;;196.32;39.22;;;6.80;99.90;;;;;;5004460;28;20057;-59
2022/12/22 07:07:04;;;;;;;187.68;38.28;;;6.80;99.90;;;;;;5003721;28;20050;-58
2022/12/22 07:09:29;;;;;;;214.98;37.63;;;6.70;99.90;;;;;;5006866;28;20546;-59
2022/12/22 07:11:55;;;;;;;158.82;35.92;;;6.60;99.90;;;;;;5006362;28;20046;-59
2022/12/22 07:14:21;;;;;;;191.68;40.60;;;6.60;99.90;;;;;;5007163;28;20521;-59
2022/12/22 07:16:46;;;;;;;181.13;37.05;;;6.60;99.90;;;;;;5006046;28;20044;-59
2022/12/22 07:19:13;;;;;;;192.25;36.97;;;6.60;99.90;;;;;;5006048;28;20120;-59
2022/12/22 07:21:38;;;;;;;243.93;39.60;;;6.50;99.90;;;;;;5004321;28;20389;-59
2022/12/22 07:24:04;;;;;;;231.15;38.67;;;6.40;99.90;;;;;;5006703;28;20049;-58
2022/12/22 07:26:30;;;;;;;198.10;38.78;;;6.40;99.90;;;;;;5005892;28;20104;-58
2022/12/22 07:28:55;;;;;;;205.13;39.33;;;6.30;99.90;;;;;;5007159;28;20633;-59
2022/12/22 07:31:21;;;;;;;219.90;40.83;;;6.30;99.90;;;;;;5006710;28;20046;-58
2022/12/22 07:33:47;;;;;;;217.68;40.28;;;6.30;99.90;;;;;;5005963;28;20057;-58
2022/12/22 07:36:16;;;;;;;276.50;42.25;;;6.20;99.90;;;;;;5004254;28;20038;-58
2022/12/22 07:38:44;;;;;;;239.65;42.45;;;6.30;99.90;;;;;;5006987;28;20169;-59
2022/12/22 07:43:57;;;;;;;278.45;44.47;;;6.40;99.90;;;;;;5006232;28;20050;-57
2022/12/22 07:46:25;;;;;;;232.88;41.90;;;6.50;99.90;;;;;;5004922;28;20045;-59
2022/12/22 07:51:39;;;;;;;189.13;36.58;;;6.60;99.90;;;;;;4973321;28;20199;-59
2022/12/22 07:54:06;;;;;;;171.70;32.90;;;6.60;99.90;;;;;;5006710;28;20576;-59
2022/12/22 07:56:32;;;;;;;143.45;31.77;;;6.50;99.90;;;;;;5006289;28;20432;-59
2022/12/22 07:58:58;;;;;;;159.88;33.88;;;6.50;99.90;;;;;;4987681;28;20226;-59
2022/12/22 08:01:24;;;;;;;143.85;31.60;;;6.50;99.90;;;;;;5021403;28;20401;-58
2022/12/22 08:03:50;;;;;;;155.93;31.80;;;6.50;99.90;;;;;;5005447;28;20041;-58
2022/12/22 08:06:15;;;;;;;136.82;30.25;;;6.40;99.90;;;;;;5002586;28;20147;-58
2022/12/22 08:08:41;;;;;;;151.98;31.50;;;6.50;99.90;;;;;;5004298;28;20041;-59
2022/12/22 08:11:07;;;;;;;156.82;31.02;;;6.40;99.90;;;;;;5021663;28;20054;-58
2022/12/22 08:13:33;;;;;;;125.43;28.63;;;6.40;99.90;;;;;;5005824;28;20053;-58
2022/12/22 08:16:07;;;;;;;111.18;26.70;;;6.40;99.90;;;;;;5005687;28;20278;-58
2022/12/22 08:18:33;;;;;;;120.60;28.13;;;6.30;99.90;;;;;;5005877;28;20505;-59
2022/12/22 08:20:59;;;;;;;121.07;27.45;;;6.30;99.90;;;;;;5004039;28;20042;-59
2022/12/22 08:23:24;;;;;;;114.28;26.08;;;6.30;99.90;;;;;;5005526;28;20087;-59
2022/12/22 08:25:59;;;;;;;122.18;26.23;;;6.30;99.90;;;;;;5005596;28;20046;-59
2022/12/22 08:28:25;;;;;;;113.97;27.27;;;6.20;99.90;;;;;;4986556;28;20093;-58
2022/12/22 08:30:52;;;;;;;135.38;29.23;;;6.20;99.90;;;;;;4986151;28;20049;-58
2022/12/22 08:33:17;;;;;;;112.38;26.67;;;6.30;99.90;;;;;;5003852;28;20046;-58
2022/12/22 08:35:43;;;;;;;119.05;26.23;;;6.30;99.90;;;;;;5003378;28;20037;-58
2022/12/22 08:38:10;;;;;;;114.78;25.40;;;6.30;99.90;;;;;;5004666;28;20046;-58
2022/12/22 08:40:36;;;;;;;82.30;22.27;;;6.30;99.90;;;;;;5005944;28;20425;-58
2022/12/22 08:43:06;;;;;;;108.93;24.27;;;6.30;99.90;;;;;;5005290;28;20048;-59
2022/12/22 08:45:32;;;;;;;99.80;23.90;;;6.30;99.90;;;;;;4985907;28;20548;-58
2022/12/22 08:47:57;;;;;;;109.18;23.95;;;6.20;99.90;;;;;;5001009;28;20334;-58
2022/12/22 08:50:23;;;;;;;102.90;24.48;;;6.20;99.90;;;;;;4998676;28;20386;-59
2022/12/22 08:52:49;;;;;;;121.30;25.58;;;6.20;99.90;;;;;;5004204;28;20057;-58
2022/12/22 08:55:14;;;;;;;96.00;22.08;;;6.20;99.90;;;;;;5003736;28;20042;-59
2022/12/22 08:57:40;;;;;;;87.28;20.50;;;6.20;99.90;;;;;;5004958;28;20045;-58
2022/12/22 09:00:08;;;;;;;99.47;23.30;;;6.10;99.90;;;;;;5005237;28;20041;-58
2022/12/22 09:02:34;;;;;;;109.95;24.30;;;6.10;99.90;;;;;;5004754;28;20034;-59
2022/12/22 09:05:00;;;;;;;124.88;24.75;;;6.10;99.90;;;;;;5003000;28;20040;-58
2022/12/22 09:07:26;;;;;;;127.13;25.80;;;6.10;99.90;;;;;;5004388;28;20034;-58
2022/12/22 09:09:53;;;;;;;116.65;25.63;;;6.10;99.90;;;;;;5005274;28;20176;-58
2022/12/22 09:12:19;;;;;;;107.00;24.02;;;6.10;99.90;;;;;;5004909;28;20053;-57
2022/12/22 09:14:44;;;;;;;127.32;25.17;;;6.10;99.90;;;;;;5004752;28;20045;-58
2022/12/22 09:17:10;;;;;;;140.25;26.15;;;6.10;99.90;;;;;;5004295;28;20540;-58
2022/12/22 09:19:35;;;;;;;121.85;25.27;;;6.20;99.90;;;;;;5003489;28;20409;-59
2022/12/22 09:22:01;;;;;;;107.28;25.15;;;6.20;99.90;;;;;;5003953;28;20393;-57
2022/12/22 09:24:27;;;;;;;90.90;22.27;;;6.20;99.90;;;;;;5004483;28;20565;-58
2022/12/22 09:26:52;;;;;;;94.35;22.92;;;6.30;99.90;;;;;;5004852;28;20390;-59
2022/12/22 09:29:18;;;;;;;67.13;18.92;;;6.20;99.90;;;;;;5005098;28;20176;-58
2022/12/22 09:31:44;;;;;;;66.70;19.35;;;6.20;99.90;;;;;;5004234;28;20053;-59
2022/12/22 09:34:10;;;;;;;94.85;23.25;;;6.20;99.90;;;;;;5003696;28;20519;-57
2022/12/22 09:36:40;;;;;;;74.45;21.83;;;6.20;99.90;;;;;;4994991;28;20042;-58
2022/12/22 09:39:07;;;;;;;89.93;23.27;;;6.20;99.90;;;;;;4991027;28;20525;-58
2022/12/22 09:41:48;;;;;;;74.25;19.70;;;6.20;99.90;;;;;;5007777;28;20133;-59
2022/12/22 09:44:25;;;;;;;88.80;23.77;;;6.20;99.90;;;;;;4992283;28;20060;-59
2022/12/22 09:46:52;;;;;;;85.78;22.02;;;6.30;99.90;;;;;;5005833;28;20100;-58
2022/12/22 09:49:19;;;;;;;72.32;21.30;;;6.20;99.90;;;;;;4991855;28;20042;-59
2022/12/22 09:52:01;;;;;;;52.85;17.25;;;6.20;99.90;;;;;;4991748;28;20409;-57
2022/12/22 09:54:27;;;;;;;39.95;14.88;;;6.20;99.90;;;;;;5003996;28;20519;-59
2022/12/22 09:56:53;;;;;;;45.58;15.90;;;6.10;99.90;;;;;;5004695;28;20123;-58
2022/12/22 09:59:20;;;;;;;44.47;16.00;;;6.10;99.90;;;;;;5004750;28;20097;-58
2022/12/22 10:02:09;;;;;;;51.20;16.90;;;6.10;99.90;;;;;;5003779;28;20112;-59
2022/12/22 10:04:40;;;;;;;46.90;16.55;;;6.10;99.90;;;;;;5001818;28;20113;-59
2022/12/22 10:07:17;;;;;;;45.63;15.35;;;6.00;99.90;;;;;;4983735;28;20567;-59
2022/12/22 10:09:43;;;;;;;37.15;13.52;;;6.00;99.90;;;;;;4985259;28;20128;-59
2022/12/22 10:12:16;;;;;;;35.45;10.98;;;6.00;99.90;;;;;;4985101;28;20584;-58
2022/12/22 10:14:45;;;;;;;43.63;11.50;;;5.90;99.90;;;;;;4999785;28;20504;-60
2022/12/22 10:17:18;;;;;;;31.50;10.93;;;5.80;99.90;;;;;;5003728;28;20245;-58
2022/12/22 10:19:45;;;;;;;33.92;12.00;;;5.80;99.90;;;;;;5001213;28;20116;-58
2022/12/22 10:22:32;;;;;;;36.33;11.98;;;5.80;99.90;;;;;;5003040;28;20034;-59
2022/12/22 10:25:03;;;;;;;34.75;12.23;;;5.80;99.90;;;;;;5004120;28;20048;-58
2022/12/22 10:27:32;;;;;;;41.88;14.38;;;5.90;99.90;;;;;;5002953;28;20049;-58
2022/12/22 10:30:20;;;;;;;35.35;13.32;;;6.00;99.90;;;;;;5003759;28;20108;-58
2022/12/22 10:33:03;;;;;;;30.42;11.50;;;6.10;99.90;;;;;;5004129;28;20117;-59
2022/12/22 10:35:51;;;;;;;27.88;11.45;;;6.20;99.90;;;;;;5002845;28;20080;-58
2022/12/22 10:38:32;;;;;;;27.92;12.13;;;6.20;99.90;;;;;;5003517;28;20044;-58
2022/12/22 10:41:15;;;;;;;32.05;12.35;;;6.20;99.90;;;;;;5004645;28;20050;-59
2022/12/22 10:44:11;;;;;;;32.78;13.43;;;6.30;99.90;;;;;;4984583;28;20589;-58
2022/12/22 10:46:44;;;;;;;37.47;14.25;;;6.40;99.90;;;;;;4989413;28;20050;-59
2022/12/22 10:49:17;;;;;;;30.70;13.10;;;6.50;99.90;;;;;;5003359;28;20042;-58
2022/12/22 10:51:47;;;;;;;23.98;11.27;;;6.70;99.90;;;;;;5001915;28;20155;-59
2022/12/22 10:54:29;;;;;;;30.17;11.52;;;6.70;99.90;;;;;;5003155;28;20041;-58
2022/12/22 10:57:18;;;;;;;34.85;11.93;;;6.90;99.90;;;;;;5004178;28;20512;-57
2022/12/22 11:00:01;;;;;;;28.20;10.85;;;7.00;99.90;;;;;;4994860;28;20564;-57
2022/12/22 11:02:33;;;;;;;29.13;11.73;;;7.10;99.90;;;;;;5003655;28;20073;-57
2022/12/22 11:05:10;;;;;;;24.27;10.45;;;7.00;99.90;;;;;;5001224;28;20128;-58
2022/12/22 11:07:41;;;;;;;25.40;10.60;;;7.10;99.90;;;;;;5003038;28;20251;-60
2022/12/22 11:10:37;;;;;;;34.05;11.38;;;7.10;99.90;;;;;;5002895;28;20541;-59
2022/12/22 11:13:15;;;;;;;28.80;10.43;;;7.20;99.90;;;;;;5001278;28;20112;-59
2022/12/22 11:15:50;;;;;;;23.75;8.98;;;7.20;99.90;;;;;;5004078;28;20113;-58
2022/12/22 11:18:29;;;;;;;30.00;11.45;;;7.20;99.90;;;;;;5006844;28;20037;-57
2022/12/22 11:21:20;;;;;;;26.17;10.45;;;7.20;99.90;;;;;;5004729;28;20052;-58
2022/12/22 11:23:58;;;;;;;25.70;12.02;;;7.20;99.90;;;;;;5006190;28;20038;-58
2022/12/22 11:26:35;;;;;;;25.27;9.77;;;7.30;99.90;;;;;;5007004;28;20603;-57
2022/12/22 11:29:11;;;;;;;25.60;10.48;;;7.40;99.90;;;;;;5006779;28;20045;-59
2022/12/22 11:32:27;;;;;;;23.85;10.25;;;7.50;99.90;;;;;;5006706;28;20678;-58
2022/12/22 11:35:32;;;;;;;22.55;9.90;;;7.70;99.90;;;;;;4981085;28;20828;-60
2022/12/22 11:38:18;;;;;;;29.00;9.27;;;7.90;99.90;;;;;;4983103;28;20137;-59
2022/12/22 11:40:47;;;;;;;23.00;9.68;;;8.00;99.90;;;;;;5005896;28;20246;-59
2022/12/22 11:43:22;;;;;;;23.23;10.48;;;8.10;99.90;;;;;;5007009;28;20038;-58
2022/12/22 11:45:59;;;;;;;20.02;9.63;;;8.20;99.90;;;;;;5005864;28;20210;-58
2022/12/22 11:48:33;;;;;;;24.50;9.40;;;8.30;99.90;;;;;;5005365;28;20053;-59
2022/12/22 11:51:12;;;;;;;23.05;8.82;;;8.40;99.90;;;;;;5005138;28;20095;-58
2022/12/22 11:54:16;;;;;;;23.20;8.63;;;8.50;99.90;;;;;;5006004;28;20100;-59
2022/12/22 11:56:49;;;;;;;19.63;8.30;;;8.70;99.90;;;;;;5006136;28;20053;-58
2022/12/22 11:59:24;;;;;;;18.95;8.27;;;8.70;99.90;;;;;;5005296;28;20049;-57
2022/12/22 12:02:14;;;;;;;20.92;7.85;;;8.60;99.90;;;;;;5006406;28;20050;-58
2022/12/22 12:05:01;;;;;;;21.67;7.63;;;8.60;99.90;;;;;;5003803;28;20091;-57
2022/12/22 12:07:46;;;;;;;22.85;7.60;;;8.40;99.90;;;;;;4985664;28;20050;-58
2022/12/22 12:10:26;;;;;;;23.05;7.47;;;8.30;99.90;;;;;;4992674;28;20471;-59
2022/12/22 12:13:06;;;;;;;21.55;6.88;;;8.30;99.90;;;;;;5006325;28;20077;-59
2022/12/22 12:15:38;;;;;;;20.52;7.00;;;8.30;99.90;;;;;;5005723;28;20519;-59
2022/12/22 12:18:30;;;;;;;16.58;5.80;;;8.20;99.90;;;;;;5005783;28;20065;-58
2022/12/22 12:21:11;;;;;;;21.63;7.13;;;8.20;99.90;;;;;;5004077;28;20144;-58
2022/12/22 12:24:15;;;;;;;21.17;6.70;;;8.20;99.90;;;;;;5005226;28;20390;-59
2022/12/22 12:26:58;;;;;;;18.27;6.30;;;8.10;99.90;;;;;;5005994;28;20120;-58
2022/12/22 12:29:27;;;;;;;19.77;6.70;;;8.10;99.90;;;;;;5005433;28;20038;-58
2022/12/22 12:32:14;;;;;;;22.65;6.80;;;8.20;99.90;;;;;;5005678;28;20038;-58
2022/12/22 12:34:45;;;;;;;20.77;7.55;;;8.30;99.90;;;;;;5003603;28;20103;-58
2022/12/22 12:37:17;;;;;;;18.17;6.78;;;8.30;99.90;;;;;;4985307;28;20054;-59
2022/12/22 12:40:04;;;;;;;20.83;6.95;;;8.30;99.90;;;;;;4986142;28;20053;-60
2022/12/22 12:42:42;;;;;;;22.55;6.95;;;8.30;99.90;;;;;;4992482;28;20405;-58
2022/12/22 12:45:35;;;;;;;24.23;7.30;;;8.40;99.90;;;;;;5005175;28;20038;-58
2022/12/22 12:48:19;;;;;;;17.88;6.32;;;8.30;99.90;;;;;;4986191;28;20038;-59
2022/12/22 12:50:45;;;;;;;19.85;6.82;;;8.30;99.90;;;;;;5001976;28;20041;-60
2022/12/22 12:53:11;;;;;;;16.50;4.88;;;8.20;99.90;;;;;;5019632;28;20058;-59
2022/12/22 12:55:39;;;;;;;21.27;6.53;;;8.10;99.90;;;;;;5005127;28;20041;-58
2022/12/22 12:58:09;;;;;;;20.05;8.30;;;8.20;99.90;;;;;;5005339;28;20095;-58
2022/12/22 13:00:34;;;;;;;21.13;7.20;;;8.10;99.90;;;;;;5005545;28;20113;-58
2022/12/22 13:03:07;;;;;;;21.48;7.07;;;8.10;99.90;;;;;;5005174;28;20121;-57
2022/12/22 13:05:53;;;;;;;21.98;6.85;;;8.20;99.90;;;;;;5002911;28;20053;-59
2022/12/22 13:08:28;;;;;;;17.20;6.60;;;8.20;99.90;;;;;;5003228;28;20049;-58
2022/12/22 13:10:53;;;;;;;21.88;6.55;;;8.30;99.90;;;;;;5004900;28;20726;-58
2022/12/22 13:13:22;;;;;;;19.58;6.60;;;8.40;99.90;;;;;;5005521;28;20046;-59
2022/12/22 13:16:02;;;;;;;20.13;6.32;;;8.50;99.90;;;;;;5005261;28;20046;-59
2022/12/22 13:18:28;;;;;;;17.63;5.75;;;8.40;99.90;;;;;;5004773;28;20406;-59
2022/12/22 13:21:14;;;;;;;15.23;5.63;;;8.40;99.90;;;;;;5002848;28;20034;-59
2022/12/22 13:23:47;;;;;;;18.58;5.65;;;8.40;99.90;;;;;;5004174;28;20045;-58
2022/12/22 13:26:16;;;;;;;17.75;5.57;;;8.40;99.90;;;;;;5004619;28;20531;-59
2022/12/22 13:28:45;;;;;;;18.23;4.57;;;8.40;99.90;;;;;;5004803;28;20685;-57
2022/12/22 13:31:35;;;;;;;18.98;5.13;;;8.40;99.90;;;;;;5004525;28;20646;-58
2022/12/22 13:34:06;;;;;;;17.77;5.03;;;8.50;99.90;;;;;;5004210;28;20141;-58
2022/12/22 13:36:32;;;;;;;20.98;4.72;;;8.70;99.90;;;;;;5002861;28;20115;-59
2022/12/22 13:39:10;;;;;;;19.58;4.25;;;8.80;99.90;;;;;;5003475;28;20118;-58
2022/12/22 13:41:43;;;;;;;19.52;4.15;;;8.80;99.90;;;;;;5004973;28;20041;-59
2022/12/22 13:44:18;;;;;;;22.00;4.70;;;8.80;99.90;;;;;;5002371;28;20050;-58
2022/12/22 13:46:44;;;;;;;18.65;4.65;;;8.90;99.90;;;;;;5002213;28;20636;-57
2022/12/22 13:49:14;;;;;;;17.13;4.70;;;9.00;99.90;;;;;;5003482;28;20030;-59
2022/12/22 13:51:41;;;;;;;12.68;3.90;;;9.00;99.90;;;;;;4999304;28;20069;-59
2022/12/22 13:54:26;;;;;;;16.17;5.20;;;9.00;99.90;;;;;;5002885;28;20041;-60
2022/12/22 13:56:55;;;;;;;15.77;4.38;;;9.00;99.90;;;;;;5004658;28;20049;-59
2022/12/22 13:59:32;;;;;;;18.92;5.32;;;9.00;99.90;;;;;;5002485;28;20045;-59
2022/12/22 14:01:59;;;;;;;19.58;5.38;;;8.90;99.90;;;;;;5004124;28;20131;-58
2022/12/22 14:04:25;;;;;;;14.68;4.85;;;9.00;99.90;;;;;;4995747;28;20536;-58
2022/12/22 14:06:51;;;;;;;13.85;4.45;;;9.00;99.90;;;;;;5002142;28;20501;-60
2022/12/22 14:09:23;;;;;;;12.20;4.40;;;9.00;99.90;;;;;;5004302;28;20045;-58
2022/12/22 14:12:15;;;;;;;13.73;4.68;;;8.90;99.90;;;;;;5004066;28;20049;-58
2022/12/22 14:14:43;;;;;;;14.95;4.50;;;8.90;99.90;;;;;;4999998;28;20112;-59
2022/12/22 14:17:32;;;;;;;13.30;4.55;;;8.80;99.90;;;;;;4998457;28;21311;-61
2022/12/22 14:20:01;;;;;;;16.08;4.43;;;8.80;99.90;;;;;;4995497;28;20588;-60
2022/12/22 14:22:35;;;;;;;18.38;4.82;;;8.80;99.90;;;;;;4997589;28;20030;-58
2022/12/22 14:25:27;;;;;;;;;;;8.90;99.90;;;;;;4991398;28;20909;-59
2022/12/22 14:27:55;;;;;;;16.00;4.35;;;8.90;99.90;;;;;;4996159;28;19921;-58
2022/12/22 14:30:27;;;;;;;16.40;3.90;;;8.90;99.90;;;;;;4999977;28;20045;-58
2022/12/22 14:32:54;;;;;;;16.15;4.53;;;8.90;99.90;;;;;;5000568;28;20042;-59
2022/12/22 14:35:20;;;;;;;17.23;4.38;;;8.90;99.90;;;;;;5001018;28;20528;-57
2022/12/22 14:37:51;;;;;;;12.13;3.75;;;9.00;99.90;;;;;;5002816;28;20069;-59
2022/12/22 14:40:37;;;;;;;12.35;3.90;;;9.00;99.90;;;;;;5003650;28;20109;-58
2022/12/22 14:43:15;;;;;;;12.88;3.45;;;9.00;99.90;;;;;;5003340;28;20115;-58
2022/12/22 14:45:41;;;;;;;16.42;3.80;;;9.00;99.90;;;;;;5002663;28;20046;-60
2022/12/22 14:48:08;;;;;;;13.38;3.38;;;8.90;99.90;;;;;;5002954;28;20421;-60
2022/12/22 14:50:35;;;;;;;14.55;3.33;;;8.90;99.90;;;;;;5002099;28;20052;-59
2022/12/22 14:53:03;;;;;;;19.80;3.78;;;8.80;99.90;;;;;;5005590;28;20069;-58
2022/12/22 14:55:36;;;;;;;11.88;3.42;;;8.80;99.90;;;;;;5006128;28;20708;-58
2022/12/22 14:58:13;;;;;;;15.82;3.35;;;8.70;99.90;;;;;;5003648;28;20033;-59
2022/12/22 15:00:44;;;;;;;12.25;3.70;;;8.60;99.90;;;;;;5006546;28;20045;-58
2022/12/22 15:03:36;;;;;;;14.82;3.67;;;8.50;99.90;;;;;;5006875;28;20077;-58
2022/12/22 15:06:23;;;;;;;14.27;4.55;;;8.50;99.90;;;;;;5004332;28;20096;-56
2022/12/22 15:08:51;;;;;;;14.27;3.60;;;8.40;99.90;;;;;;5006426;28;20624;-58
2022/12/22 15:11:18;;;;;;;19.60;4.60;;;8.40;99.90;;;;;;5007277;28;20054;-59
2022/12/22 15:13:46;;;;;;;13.93;4.55;;;8.30;99.90;;;;;;5006252;28;20078;-57
2022/12/22 15:16:17;;;;;;;13.82;4.55;;;8.30;99.90;;;;;;4988745;28;20050;-60
2022/12/22 15:18:43;;;;;;;15.18;5.10;;;8.20;99.90;;;;;;5005224;28;20034;-58
2022/12/22 15:21:13;;;;;;;15.80;5.10;;;8.20;99.90;;;;;;4999913;28;20100;-59
2022/12/22 15:23:40;;;;;;;17.02;5.45;;;8.20;99.90;;;;;;5005903;28;20046;-59
2022/12/22 15:26:06;;;;;;;16.52;5.68;;;8.20;99.90;;;;;;5004528;28;20029;-58
2022/12/22 15:28:32;;;;;;;19.02;5.25;;;8.10;99.90;;;;;;5006053;28;20192;-60
2022/12/22 15:30:59;;;;;;;19.15;5.63;;;8.10;99.90;;;;;;5012977;28;20120;-58
2022/12/22 15:33:25;;;;;;;14.13;5.10;;;8.10;99.90;;;;;;5019084;28;20050;-58
2022/12/22 15:35:50;;;;;;;15.45;5.03;;;8.10;99.90;;;;;;5003295;28;20045;-58
2022/12/22 15:38:19;;;;;;;15.93;4.75;;;8.10;99.90;;;;;;5004831;28;20480;-59
2022/12/22 15:40:45;;;;;;;16.10;5.50;;;8.10;99.90;;;;;;5006439;28;20636;-58
2022/12/22 15:43:11;;;;;;;21.67;5.65;;;8.10;99.90;;;;;;5006144;28;20072;-55
2022/12/22 15:45:38;;;;;;;18.08;5.53;;;8.00;99.90;;;;;;5005960;28;20042;-57
2022/12/22 15:48:06;;;;;;;14.13;6.05;;;8.00;99.90;;;;;;5020822;28;20053;-58
2022/12/22 15:50:36;;;;;;;17.40;5.70;;;8.00;99.90;;;;;;5004560;28;20073;-57
2022/12/22 15:53:03;;;;;;;12.65;5.55;;;8.00;99.90;;;;;;5005106;28;20054;-58
2022/12/22 15:55:29;;;;;;;13.63;5.40;;;8.00;99.90;;;;;;5005448;28;20058;-58
2022/12/22 15:57:57;;;;;;;20.95;6.05;;;7.90;99.90;;;;;;5006396;28;20336;-57
2022/12/22 16:00:23;;;;;;;16.33;5.88;;;7.90;99.90;;;;;;5004669;28;20620;-58
2022/12/22 16:02:49;;;;;;;18.15;5.07;;;7.90;99.90;;;;;;5004435;28;20691;-58
2022/12/22 16:05:15;;;;;;;18.38;5.15;;;7.80;99.90;;;;;;5004261;28;20046;-57
2022/12/22 16:07:43;;;;;;;16.38;4.95;;;7.80;99.90;;;;;;5005047;28;20049;-57
2022/12/22 16:10:24;;;;;;;15.90;5.18;;;7.70;99.90;;;;;;5006360;28;20056;-58
2022/12/22 16:12:54;;;;;;;19.98;5.38;;;7.70;99.90;;;;;;5003918;28;20096;-59
2022/12/22 16:15:20;;;;;;;14.93;5.65;;;7.70;99.90;;;;;;5005088;28;20406;-57
2022/12/22 16:17:46;;;;;;;21.25;5.57;;;7.70;99.90;;;;;;5005706;28;20050;-58
2022/12/22 16:20:12;;;;;;;16.05;6.05;;;7.70;99.90;;;;;;5003804;28;20637;-58
2022/12/22 16:22:38;;;;;;;18.95;6.70;;;7.70;99.90;;;;;;5004611;28;20045;-58
2022/12/22 16:25:11;;;;;;;14.77;5.88;;;7.70;99.90;;;;;;5004981;28;20038;-59
2022/12/22 16:27:36;;;;;;;16.48;6.30;;;7.70;99.90;;;;;;5005905;28;20042;-57
2022/12/22 16:30:03;;;;;;;19.13;7.88;;;7.60;99.90;;;;;;5005763;28;20048;-60
2022/12/22 16:32:30;;;;;;;15.07;8.10;;;7.60;99.90;;;;;;5005099;28;20033;-58
2022/12/22 16:35:08;;;;;;;20.30;9.73;;;7.60;99.90;;;;;;5003281;28;20046;-56
2022/12/22 16:37:34;;;;;;;19.38;9.20;;;7.60;99.90;;;;;;5004441;28;20045;-57